KAFO/AFO METAR and TAF weather

Enter ICAO airport designator
Station Type Date Time Source
KAFO METAR 2021/05/13 06:15 UTC NOAA

KAFO 130615Z AUTO 00000KT 10SM CLR 02/00 A3022 RMK AO2


Station Type Date Time Source
KAFO Decoded METAR 2021/05/13 06:15 UTC NOAA

Station name not available
May 13, 2021 - 02:15 AM EDT / 2021.05.13 0615 UTC
Wind: Calm:0
Visibility: 10 mile(s):0
Sky conditions: clear
Temperature: 35 F (2 C)
Dew Point: 32 F (0 C)
Relative Humidity: 86%
Pressure (altimeter): 30.22 in. Hg (1023 hPa)
ob: KAFO 130615Z AUTO 00000KT 10SM CLR 02/00 A3022 RMK AO2
cycle: 6

Station Type Date Time Source
KAFO TAF UTC NOAA

Error!

Example: see airport list